sensor_id;sensor_type;location;lat;lon;timestamp;temperature;humidity
51837;DHT22;38941;53.254;6.600;2023-07-13T00:01:53;17.00;99.90
51837;DHT22;38941;53.254;6.600;2023-07-13T00:03:54;17.10;99.90
51837;DHT22;38941;53.254;6.600;2023-07-13T00:05:59;17.10;99.90
51837;DHT22;38941;53.254;6.600;2023-07-13T00:08:00;17.00;99.90
51837;DHT22;38941;53.254;6.600;2023-07-13T00:10:02;17.10;99.90
51837;DHT22;38941;53.254;6.600;2023-07-13T00:12:04;17.00;99.90
51837;DHT22;38941;53.254;6.600;2023-07-13T00:14:06;17.00;99.90
51837;DHT22;38941;53.254;6.600;2023-07-13T00:16:09;17.00;99.90
51837;DHT22;38941;53.254;6.600;2023-07-13T00:18:10;17.10;99.90
51837;DHT22;38941;53.254;6.600;2023-07-13T00:20:13;17.00;99.90
51837;DHT22;38941;53.254;6.600;2023-07-13T00:22:13;17.00;99.90
51837;DHT22;38941;53.254;6.600;2023-07-13T00:24:16;17.10;99.90
51837;DHT22;38941;53.254;6.600;2023-07-13T00:26:22;17.00;99.90
51837;DHT22;38941;53.254;6.600;2023-07-13T00:28:23;17.00;99.90
51837;DHT22;38941;53.254;6.600;2023-07-13T00:30:23;17.00;99.90
51837;DHT22;38941;53.254;6.600;2023-07-13T00:32:24;17.00;99.90
51837;DHT22;38941;53.254;6.600;2023-07-13T00:34:25;16.90;99.90
51837;DHT22;38941;53.254;6.600;2023-07-13T00:36:26;17.00;99.90
51837;DHT22;38941;53.254;6.600;2023-07-13T00:38:27;16.90;99.90
51837;DHT22;38941;53.254;6.600;2023-07-13T00:40:28;16.90;99.90
51837;DHT22;38941;53.254;6.600;2023-07-13T00:42:29;16.90;99.90
51837;DHT22;38941;53.254;6.600;2023-07-13T00:44:30;16.90;99.90
51837;DHT22;38941;53.254;6.600;2023-07-13T00:46:32;16.90;99.90
51837;DHT22;38941;53.254;6.600;2023-07-13T00:48:36;16.90;99.90
51837;DHT22;38941;53.254;6.600;2023-07-13T00:50:38;16.90;99.90
51837;DHT22;38941;53.254;6.600;2023-07-13T00:52:41;16.90;99.90
51837;DHT22;38941;53.254;6.600;2023-07-13T00:54:45;16.90;99.90
51837;DHT22;38941;53.254;6.600;2023-07-13T00:56:49;16.80;99.90
51837;DHT22;38941;53.254;6.600;2023-07-13T00:58:50;16.80;99.90
51837;DHT22;38941;53.254;6.600;2023-07-13T01:00:51;16.80;99.90
51837;DHT22;38941;53.254;6.600;2023-07-13T01:02:53;16.80;99.90
51837;DHT22;38941;53.254;6.600;2023-07-13T01:04:53;16.70;99.90
51837;DHT22;38941;53.254;6.600;2023-07-13T01:06:56;16.70;99.90
51837;DHT22;38941;53.254;6.600;2023-07-13T01:08:58;16.60;99.90
51837;DHT22;38941;53.254;6.600;2023-07-13T01:10:59;16.70;99.90
51837;DHT22;38941;53.254;6.600;2023-07-13T01:13:00;16.70;99.90
51837;DHT22;38941;53.254;6.600;2023-07-13T01:15:01;16.60;99.90
51837;DHT22;38941;53.254;6.600;2023-07-13T01:17:03;16.60;99.90
51837;DHT22;38941;53.254;6.600;2023-07-13T01:19:37;16.60;99.90
51837;DHT22;38941;53.254;6.600;2023-07-13T01:21:36;16.60;99.90
51837;DHT22;38941;53.254;6.600;2023-07-13T01:23:43;16.60;99.90
51837;DHT22;38941;53.254;6.600;2023-07-13T01:25:44;16.50;99.90
51837;DHT22;38941;53.254;6.600;2023-07-13T01:27:46;16.50;99.90
51837;DHT22;38941;53.254;6.600;2023-07-13T01:29:47;16.50;99.90
51837;DHT22;38941;53.254;6.600;2023-07-13T01:31:48;16.50;99.90
51837;DHT22;38941;53.254;6.600;2023-07-13T01:33:48;16.50;99.90
51837;DHT22;38941;53.254;6.600;2023-07-13T01:35:49;16.40;99.90
51837;DHT22;38941;53.254;6.600;2023-07-13T01:37:50;16.40;99.90
51837;DHT22;38941;53.254;6.600;2023-07-13T01:39:52;16.40;99.90
51837;DHT22;38941;53.254;6.600;2023-07-13T01:41:52;16.40;99.90
51837;DHT22;38941;53.254;6.600;2023-07-13T01:43:53;16.30;99.90
51837;DHT22;38941;53.254;6.600;2023-07-13T01:45:55;16.40;99.90
51837;DHT22;38941;53.254;6.600;2023-07-13T01:47:56;16.40;99.90
51837;DHT22;38941;53.254;6.600;2023-07-13T01:49:57;16.40;99.90
51837;DHT22;38941;53.254;6.600;2023-07-13T01:51:58;16.40;99.90
51837;DHT22;38941;53.254;6.600;2023-07-13T01:53:58;16.40;99.90
51837;DHT22;38941;53.254;6.600;2023-07-13T01:55:59;16.40;99.90
51837;DHT22;38941;53.254;6.600;2023-07-13T01:58:00;16.40;99.90
51837;DHT22;38941;53.254;6.600;2023-07-13T02:00:05;16.40;99.90
51837;DHT22;38941;53.254;6.600;2023-07-13T02:02:06;16.40;99.90
51837;DHT22;38941;53.254;6.600;2023-07-13T02:04:07;16.40;99.90
51837;DHT22;38941;53.254;6.600;2023-07-13T02:06:07;16.40;99.90
51837;DHT22;38941;53.254;6.600;2023-07-13T02:08:08;16.30;99.90
51837;DHT22;38941;53.254;6.600;2023-07-13T02:10:10;16.40;99.90
51837;DHT22;38941;53.254;6.600;2023-07-13T02:12:10;16.40;99.90
51837;DHT22;38941;53.254;6.600;2023-07-13T02:14:13;16.40;99.90
51837;DHT22;38941;53.254;6.600;2023-07-13T02:16:15;16.30;99.90
51837;DHT22;38941;53.254;6.600;2023-07-13T02:18:16;16.50;99.90
51837;DHT22;38941;53.254;6.600;2023-07-13T02:20:17;16.40;99.90
51837;DHT22;38941;53.254;6.600;2023-07-13T02:22:18;16.40;99.90
51837;DHT22;38941;53.254;6.600;2023-07-13T02:24:19;16.20;99.90
51837;DHT22;38941;53.254;6.600;2023-07-13T02:26:21;16.30;99.90
51837;DHT22;38941;53.254;6.600;2023-07-13T02:28:22;16.30;99.90
51837;DHT22;38941;53.254;6.600;2023-07-13T02:30:22;16.30;99.90
51837;DHT22;38941;53.254;6.600;2023-07-13T02:32:25;16.20;99.90
51837;DHT22;38941;53.254;6.600;2023-07-13T02:34:26;16.10;99.90
51837;DHT22;38941;53.254;6.600;2023-07-13T02:36:27;16.20;99.90
51837;DHT22;38941;53.254;6.600;2023-07-13T02:38:29;16.20;99.90
51837;DHT22;38941;53.254;6.600;2023-07-13T02:40:30;16.20;99.90
51837;DHT22;38941;53.254;6.600;2023-07-13T02:42:33;16.20;99.90
51837;DHT22;38941;53.254;6.600;2023-07-13T02:44:34;16.20;99.90
51837;DHT22;38941;53.254;6.600;2023-07-13T02:46:36;16.20;99.90
51837;DHT22;38941;53.254;6.600;2023-07-13T02:48:38;16.20;99.90
51837;DHT22;38941;53.254;6.600;2023-07-13T02:50:39;16.10;99.90
51837;DHT22;38941;53.254;6.600;2023-07-13T02:52:40;16.10;99.90
51837;DHT22;38941;53.254;6.600;2023-07-13T02:54:40;16.10;99.90
51837;DHT22;38941;53.254;6.600;2023-07-13T02:56:41;16.10;99.90
51837;DHT22;38941;53.254;6.600;2023-07-13T02:58:43;16.10;99.90
51837;DHT22;38941;53.254;6.600;2023-07-13T03:00:45;16.10;99.90
51837;DHT22;38941;53.254;6.600;2023-07-13T03:02:46;16.10;99.90
51837;DHT22;38941;53.254;6.600;2023-07-13T03:04:47;16.10;99.90
51837;DHT22;38941;53.254;6.600;2023-07-13T03:06:49;16.10;99.90
51837;DHT22;38941;53.254;6.600;2023-07-13T03:08:50;16.00;99.90
51837;DHT22;38941;53.254;6.600;2023-07-13T03:11:09;16.00;99.90
51837;DHT22;38941;53.254;6.600;2023-07-13T03:13:12;16.00;99.90
51837;DHT22;38941;53.254;6.600;2023-07-13T03:15:13;16.00;99.90
51837;DHT22;38941;53.254;6.600;2023-07-13T03:17:13;16.00;99.90
51837;DHT22;38941;53.254;6.600;2023-07-13T03:19:14;16.00;99.90
51837;DHT22;38941;53.254;6.600;2023-07-13T03:21:16;16.00;99.90
51837;DHT22;38941;53.254;6.600;2023-07-13T03:23:17;16.00;99.90
51837;DHT22;38941;53.254;6.600;2023-07-13T03:25:18;16.00;99.90
51837;DHT22;38941;53.254;6.600;2023-07-13T03:27:18;16.00;99.90
51837;DHT22;38941;53.254;6.600;2023-07-13T03:29:20;16.00;99.90
51837;DHT22;38941;53.254;6.600;2023-07-13T03:31:25;15.90;99.90
51837;DHT22;38941;53.254;6.600;2023-07-13T03:33:26;15.90;99.90
51837;DHT22;38941;53.254;6.600;2023-07-13T03:35:26;15.80;99.90
51837;DHT22;38941;53.254;6.600;2023-07-13T03:37:27;15.90;99.90
51837;DHT22;38941;53.254;6.600;2023-07-13T03:39:28;15.90;99.90
51837;DHT22;38941;53.254;6.600;2023-07-13T03:41:29;16.00;99.90
51837;DHT22;38941;53.254;6.600;2023-07-13T03:43:32;16.00;99.90
51837;DHT22;38941;53.254;6.600;2023-07-13T03:45:32;16.00;99.90
51837;DHT22;38941;53.254;6.600;2023-07-13T03:47:33;16.00;99.90
51837;DHT22;38941;53.254;6.600;2023-07-13T03:49:34;16.00;99.90
51837;DHT22;38941;53.254;6.600;2023-07-13T03:51:35;16.00;99.90
51837;DHT22;38941;53.254;6.600;2023-07-13T03:53:38;16.10;99.90
51837;DHT22;38941;53.254;6.600;2023-07-13T03:55:39;16.10;99.90
51837;DHT22;38941;53.254;6.600;2023-07-13T03:57:40;16.10;99.90
51837;DHT22;38941;53.254;6.600;2023-07-13T03:59:41;16.10;99.90
51837;DHT22;38941;53.254;6.600;2023-07-13T04:01:43;16.10;99.90
51837;DHT22;38941;53.254;6.600;2023-07-13T04:03:44;16.10;99.90
51837;DHT22;38941;53.254;6.600;2023-07-13T04:05:47;16.10;99.90
51837;DHT22;38941;53.254;6.600;2023-07-13T04:07:49;16.10;99.90
51837;DHT22;38941;53.254;6.600;2023-07-13T04:09:50;16.00;99.90
51837;DHT22;38941;53.254;6.600;2023-07-13T04:11:52;16.00;99.90
51837;DHT22;38941;53.254;6.600;2023-07-13T04:13:52;16.00;99.90
51837;DHT22;38941;53.254;6.600;2023-07-13T04:15:53;15.60;99.90
51837;DHT22;38941;53.254;6.600;2023-07-13T04:17:54;16.00;99.90
51837;DHT22;38941;53.254;6.600;2023-07-13T04:19:55;16.00;99.90
51837;DHT22;38941;53.254;6.600;2023-07-13T04:21:56;16.00;99.90
51837;DHT22;38941;53.254;6.600;2023-07-13T04:23:58;16.00;99.90
51837;DHT22;38941;53.254;6.600;2023-07-13T04:25:58;15.90;99.90
51837;DHT22;38941;53.254;6.600;2023-07-13T04:27:59;15.90;99.90
51837;DHT22;38941;53.254;6.600;2023-07-13T04:30:00;15.90;99.90
51837;DHT22;38941;53.254;6.600;2023-07-13T04:32:00;15.90;99.90
51837;DHT22;38941;53.254;6.600;2023-07-13T04:34:01;15.90;99.90
51837;DHT22;38941;53.254;6.600;2023-07-13T04:36:05;16.00;99.90
51837;DHT22;38941;53.254;6.600;2023-07-13T04:38:06;16.00;99.90
51837;DHT22;38941;53.254;6.600;2023-07-13T04:40:07;15.90;99.90
51837;DHT22;38941;53.254;6.600;2023-07-13T04:42:12;16.00;99.90
51837;DHT22;38941;53.254;6.600;2023-07-13T04:44:13;16.00;99.90
51837;DHT22;38941;53.254;6.600;2023-07-13T04:46:15;16.00;99.90
51837;DHT22;38941;53.254;6.600;2023-07-13T04:48:18;16.00;99.90
51837;DHT22;38941;53.254;6.600;2023-07-13T04:50:19;16.00;99.90
51837;DHT22;38941;53.254;6.600;2023-07-13T04:52:23;16.00;99.90
51837;DHT22;38941;53.254;6.600;2023-07-13T04:54:24;16.10;99.90
51837;DHT22;38941;53.254;6.600;2023-07-13T04:56:25;16.10;99.90
51837;DHT22;38941;53.254;6.600;2023-07-13T04:58:26;16.10;99.90
51837;DHT22;38941;53.254;6.600;2023-07-13T05:00:27;16.10;99.90
51837;DHT22;38941;53.254;6.600;2023-07-13T05:02:28;16.20;99.90
51837;DHT22;38941;53.254;6.600;2023-07-13T05:04:31;16.20;99.90
51837;DHT22;38941;53.254;6.600;2023-07-13T05:06:33;16.20;99.90
51837;DHT22;38941;53.254;6.600;2023-07-13T05:08:34;16.30;99.90
51837;DHT22;38941;53.254;6.600;2023-07-13T05:10:35;16.30;99.90
51837;DHT22;38941;53.254;6.600;2023-07-13T05:12:36;16.40;99.90
51837;DHT22;38941;53.254;6.600;2023-07-13T05:14:37;16.40;99.90
51837;DHT22;38941;53.254;6.600;2023-07-13T05:16:38;16.40;99.90
51837;DHT22;38941;53.254;6.600;2023-07-13T05:18:39;16.40;99.90
51837;DHT22;38941;53.254;6.600;2023-07-13T05:20:40;16.50;99.90
51837;DHT22;38941;53.254;6.600;2023-07-13T05:22:41;16.50;99.90
51837;DHT22;38941;53.254;6.600;2023-07-13T05:24:42;16.60;99.90
51837;DHT22;38941;53.254;6.600;2023-07-13T05:26:43;16.60;99.90
51837;DHT22;38941;53.254;6.600;2023-07-13T05:28:44;16.60;99.90
51837;DHT22;38941;53.254;6.600;2023-07-13T05:30:48;16.70;99.90
51837;DHT22;38941;53.254;6.600;2023-07-13T05:32:51;16.70;99.90
51837;DHT22;38941;53.254;6.600;2023-07-13T05:34:52;16.80;99.90
51837;DHT22;38941;53.254;6.600;2023-07-13T05:36:53;16.80;99.90
51837;DHT22;38941;53.254;6.600;2023-07-13T05:38:53;16.90;99.90
51837;DHT22;38941;53.254;6.600;2023-07-13T05:40:55;17.00;99.90
51837;DHT22;38941;53.254;6.600;2023-07-13T05:42:56;17.00;99.90
51837;DHT22;38941;53.254;6.600;2023-07-13T05:44:57;17.10;99.90
51837;DHT22;38941;53.254;6.600;2023-07-13T05:46:58;17.10;99.90
51837;DHT22;38941;53.254;6.600;2023-07-13T05:48:59;17.10;99.90
51837;DHT22;38941;53.254;6.600;2023-07-13T05:51:01;17.20;99.90
51837;DHT22;38941;53.254;6.600;2023-07-13T05:53:01;17.30;99.90
51837;DHT22;38941;53.254;6.600;2023-07-13T05:55:02;17.30;99.90
51837;DHT22;38941;53.254;6.600;2023-07-13T05:57:03;17.30;99.90
51837;DHT22;38941;53.254;6.600;2023-07-13T05:59:04;17.30;99.90
51837;DHT22;38941;53.254;6.600;2023-07-13T06:01:10;17.40;99.90
51837;DHT22;38941;53.254;6.600;2023-07-13T06:03:11;17.50;99.90
51837;DHT22;38941;53.254;6.600;2023-07-13T06:05:12;17.50;99.90
51837;DHT22;38941;53.254;6.600;2023-07-13T06:07:13;17.60;99.90
51837;DHT22;38941;53.254;6.600;2023-07-13T06:09:13;17.70;99.90
51837;DHT22;38941;53.254;6.600;2023-07-13T06:11:18;17.70;99.90
51837;DHT22;38941;53.254;6.600;2023-07-13T06:13:20;17.80;99.90
51837;DHT22;38941;53.254;6.600;2023-07-13T06:15:20;17.80;99.90
51837;DHT22;38941;53.254;6.600;2023-07-13T06:17:21;17.80;99.90
51837;DHT22;38941;53.254;6.600;2023-07-13T06:19:22;17.90;99.90
51837;DHT22;38941;53.254;6.600;2023-07-13T06:21:23;17.90;99.90
51837;DHT22;38941;53.254;6.600;2023-07-13T06:23:24;18.00;99.90
51837;DHT22;38941;53.254;6.600;2023-07-13T06:25:26;18.10;99.90
51837;DHT22;38941;53.254;6.600;2023-07-13T06:27:27;18.10;99.90
51837;DHT22;38941;53.254;6.600;2023-07-13T06:29:28;18.20;99.90
51837;DHT22;38941;53.254;6.600;2023-07-13T06:31:28;18.30;99.90
51837;DHT22;38941;53.254;6.600;2023-07-13T06:33:29;18.40;99.90
51837;DHT22;38941;53.254;6.600;2023-07-13T06:35:30;18.40;99.90
51837;DHT22;38941;53.254;6.600;2023-07-13T06:37:32;18.50;99.90
51837;DHT22;38941;53.254;6.600;2023-07-13T06:39:33;18.60;99.90
51837;DHT22;38941;53.254;6.600;2023-07-13T06:41:34;18.70;99.90
51837;DHT22;38941;53.254;6.600;2023-07-13T06:43:36;18.60;99.90
51837;DHT22;38941;53.254;6.600;2023-07-13T06:45:43;18.70;99.90
51837;DHT22;38941;53.254;6.600;2023-07-13T06:47:46;18.70;99.90
51837;DHT22;38941;53.254;6.600;2023-07-13T06:49:47;18.80;99.90
51837;DHT22;38941;53.254;6.600;2023-07-13T06:51:48;19.00;99.90
51837;DHT22;38941;53.254;6.600;2023-07-13T06:53:49;19.00;99.90
51837;DHT22;38941;53.254;6.600;2023-07-13T06:55:50;19.00;99.90
51837;DHT22;38941;53.254;6.600;2023-07-13T06:57:52;18.90;99.90
51837;DHT22;38941;53.254;6.600;2023-07-13T06:59:52;18.90;99.90
51837;DHT22;38941;53.254;6.600;2023-07-13T07:01:53;18.90;99.90
51837;DHT22;38941;53.254;6.600;2023-07-13T07:03:54;18.90;99.90
51837;DHT22;38941;53.254;6.600;2023-07-13T07:06:18;18.90;99.90
51837;DHT22;38941;53.254;6.600;2023-07-13T07:08:19;19.10;99.90
51837;DHT22;38941;53.254;6.600;2023-07-13T07:10:20;19.20;99.90
51837;DHT22;38941;53.254;6.600;2023-07-13T07:12:21;19.30;99.90
51837;DHT22;38941;53.254;6.600;2023-07-13T07:14:22;19.40;99.90
51837;DHT22;38941;53.254;6.600;2023-07-13T07:16:24;19.60;99.90
51837;DHT22;38941;53.254;6.600;2023-07-13T07:18:25;19.80;99.90
51837;DHT22;38941;53.254;6.600;2023-07-13T07:20:26;19.90;99.90
51837;DHT22;38941;53.254;6.600;2023-07-13T07:22:28;20.10;99.90
51837;DHT22;38941;53.254;6.600;2023-07-13T07:24:29;20.10;99.90
51837;DHT22;38941;53.254;6.600;2023-07-13T07:26:30;20.00;99.90
51837;DHT22;38941;53.254;6.600;2023-07-13T07:28:31;19.90;99.90
51837;DHT22;38941;53.254;6.600;2023-07-13T07:30:31;19.80;99.90
51837;DHT22;38941;53.254;6.600;2023-07-13T07:32:32;19.70;99.90
51837;DHT22;38941;53.254;6.600;2023-07-13T07:34:33;19.60;99.90
51837;DHT22;38941;53.254;6.600;2023-07-13T07:36:34;19.60;99.90
51837;DHT22;38941;53.254;6.600;2023-07-13T07:38:34;19.60;99.90
51837;DHT22;38941;53.254;6.600;2023-07-13T07:40:46;19.90;99.90
51837;DHT22;38941;53.254;6.600;2023-07-13T07:42:48;20.00;99.90
51837;DHT22;38941;53.254;6.600;2023-07-13T07:44:49;20.20;99.90
51837;DHT22;38941;53.254;6.600;2023-07-13T07:46:50;20.30;99.90
51837;DHT22;38941;53.254;6.600;2023-07-13T07:48:51;20.30;99.90
51837;DHT22;38941;53.254;6.600;2023-07-13T07:50:53;20.20;99.90
51837;DHT22;38941;53.254;6.600;2023-07-13T07:52:54;20.30;99.90
51837;DHT22;38941;53.254;6.600;2023-07-13T07:54:59;20.40;99.90
51837;DHT22;38941;53.254;6.600;2023-07-13T07:57:00;20.40;99.90
51837;DHT22;38941;53.254;6.600;2023-07-13T07:59:00;20.40;99.90
51837;DHT22;38941;53.254;6.600;2023-07-13T08:01:06;20.30;99.90
51837;DHT22;38941;53.254;6.600;2023-07-13T08:03:07;20.20;99.90
51837;DHT22;38941;53.254;6.600;2023-07-13T08:05:09;20.00;99.90
51837;DHT22;38941;53.254;6.600;2023-07-13T08:07:11;19.90;99.90
51837;DHT22;38941;53.254;6.600;2023-07-13T08:09:12;19.80;99.90
51837;DHT22;38941;53.254;6.600;2023-07-13T08:11:13;19.70;99.90
51837;DHT22;38941;53.254;6.600;2023-07-13T08:13:15;19.60;99.90
51837;DHT22;38941;53.254;6.600;2023-07-13T08:15:16;19.50;99.90
51837;DHT22;38941;53.254;6.600;2023-07-13T08:17:17;19.30;99.90
51837;DHT22;38941;53.254;6.600;2023-07-13T08:19:18;19.30;99.90
51837;DHT22;38941;53.254;6.600;2023-07-13T08:21:19;19.20;99.90
51837;DHT22;38941;53.254;6.600;2023-07-13T08:23:23;19.30;99.90
51837;DHT22;38941;53.254;6.600;2023-07-13T08:25:24;19.40;99.90
51837;DHT22;38941;53.254;6.600;2023-07-13T08:27:27;19.40;99.90
51837;DHT22;38941;53.254;6.600;2023-07-13T08:29:28;19.50;99.90
51837;DHT22;38941;53.254;6.600;2023-07-13T08:31:32;19.60;99.90
51837;DHT22;38941;53.254;6.600;2023-07-13T08:33:34;19.60;99.90
51837;DHT22;38941;53.254;6.600;2023-07-13T08:35:38;19.60;99.90
51837;DHT22;38941;53.254;6.600;2023-07-13T08:37:39;19.60;99.90
51837;DHT22;38941;53.254;6.600;2023-07-13T08:39:40;19.50;99.90
51837;DHT22;38941;53.254;6.600;2023-07-13T08:41:41;19.40;99.90
51837;DHT22;38941;53.254;6.600;2023-07-13T08:43:43;19.30;99.90
51837;DHT22;38941;53.254;6.600;2023-07-13T08:45:51;19.30;99.90
51837;DHT22;38941;53.254;6.600;2023-07-13T08:48:01;19.30;99.90
51837;DHT22;38941;53.254;6.600;2023-07-13T08:50:04;19.20;99.90
51837;DHT22;38941;53.254;6.600;2023-07-13T08:52:10;19.20;99.90
51837;DHT22;38941;53.254;6.600;2023-07-13T08:54:25;19.10;99.90
51837;DHT22;38941;53.254;6.600;2023-07-13T08:56:30;19.10;99.90
51837;DHT22;38941;53.254;6.600;2023-07-13T08:58:31;19.10;99.90
51837;DHT22;38941;53.254;6.600;2023-07-13T09:03:26;19.50;99.90
51837;DHT22;38941;53.254;6.600;2023-07-13T09:05:38;19.70;99.90
51837;DHT22;38941;53.254;6.600;2023-07-13T09:07:58;19.80;99.90
51837;DHT22;38941;53.254;6.600;2023-07-13T09:10:15;19.80;99.90
51837;DHT22;38941;53.254;6.600;2023-07-13T09:12:33;20.00;99.90
51837;DHT22;38941;53.254;6.600;2023-07-13T09:14:49;20.00;99.90
51837;DHT22;38941;53.254;6.600;2023-07-13T09:16:51;20.00;99.90
51837;DHT22;38941;53.254;6.600;2023-07-13T09:18:54;19.90;99.90
51837;DHT22;38941;53.254;6.600;2023-07-13T09:21:10;19.90;99.90
51837;DHT22;38941;53.254;6.600;2023-07-13T09:23:19;19.80;99.90
51837;DHT22;38941;53.254;6.600;2023-07-13T09:25:30;19.70;99.90
51837;DHT22;38941;53.254;6.600;2023-07-13T09:27:39;19.60;99.90
51837;DHT22;38941;53.254;6.600;2023-07-13T09:29:44;19.80;99.90
51837;DHT22;38941;53.254;6.600;2023-07-13T09:31:49;20.20;99.90
51837;DHT22;38941;53.254;6.600;2023-07-13T09:33:51;20.60;99.90
51837;DHT22;38941;53.254;6.600;2023-07-13T09:35:53;20.80;99.90
51837;DHT22;38941;53.254;6.600;2023-07-13T09:37:58;21.10;99.90
51837;DHT22;38941;53.254;6.600;2023-07-13T09:40:00;21.50;99.90
51837;DHT22;38941;53.254;6.600;2023-07-13T09:44:14;21.60;99.90
51837;DHT22;38941;53.254;6.600;2023-07-13T09:46:21;21.60;99.90
51837;DHT22;38941;53.254;6.600;2023-07-13T09:48:22;21.50;99.90
51837;DHT22;38941;53.254;6.600;2023-07-13T09:50:24;21.40;99.90
51837;DHT22;38941;53.254;6.600;2023-07-13T09:52:26;21.20;99.90
51837;DHT22;38941;53.254;6.600;2023-07-13T09:54:34;21.20;99.90
51837;DHT22;38941;53.254;6.600;2023-07-13T09:56:38;21.40;99.90
51837;DHT22;38941;53.254;6.600;2023-07-13T09:58:38;21.60;99.90
51837;DHT22;38941;53.254;6.600;2023-07-13T10:01:01;21.60;99.90
51837;DHT22;38941;53.254;6.600;2023-07-13T10:03:20;21.50;99.90
51837;DHT22;38941;53.254;6.600;2023-07-13T10:05:21;21.30;99.90
51837;DHT22;38941;53.254;6.600;2023-07-13T10:07:27;21.20;99.90
51837;DHT22;38941;53.254;6.600;2023-07-13T10:09:28;21.20;99.90
51837;DHT22;38941;53.254;6.600;2023-07-13T10:11:30;21.00;99.90
51837;DHT22;38941;53.254;6.600;2023-07-13T10:13:36;20.90;99.90
51837;DHT22;38941;53.254;6.600;2023-07-13T10:15:42;20.80;99.90
51837;DHT22;38941;53.254;6.600;2023-07-13T10:17:47;21.00;99.90
51837;DHT22;38941;53.254;6.600;2023-07-13T10:19:48;21.30;99.90
51837;DHT22;38941;53.254;6.600;2023-07-13T10:21:57;21.70;99.90
51837;DHT22;38941;53.254;6.600;2023-07-13T10:24:21;21.90;99.90
51837;DHT22;38941;53.254;6.600;2023-07-13T10:26:29;21.90;99.90
51837;DHT22;38941;53.254;6.600;2023-07-13T10:28:33;21.90;99.90
51837;DHT22;38941;53.254;6.600;2023-07-13T10:30:39;22.30;99.90
51837;DHT22;38941;53.254;6.600;2023-07-13T10:32:41;22.80;99.90
51837;DHT22;38941;53.254;6.600;2023-07-13T10:34:44;23.20;99.90
51837;DHT22;38941;53.254;6.600;2023-07-13T10:36:48;23.40;99.90
51837;DHT22;38941;53.254;6.600;2023-07-13T10:38:50;23.70;99.90
51837;DHT22;38941;53.254;6.600;2023-07-13T10:42:54;24.20;98.50
51837;DHT22;38941;53.254;6.600;2023-07-13T10:44:59;24.20;97.00
51837;DHT22;38941;53.254;6.600;2023-07-13T10:47:15;24.40;97.10
51837;DHT22;38941;53.254;6.600;2023-07-13T10:49:19;24.50;96.70
51837;DHT22;38941;53.254;6.600;2023-07-13T10:51:22;24.80;96.80
51837;DHT22;38941;53.254;6.600;2023-07-13T10:53:31;24.70;96.80
51837;DHT22;38941;53.254;6.600;2023-07-13T10:57:42;24.80;96.60
51837;DHT22;38941;53.254;6.600;2023-07-13T11:04:11;24.90;96.40
51837;DHT22;38941;53.254;6.600;2023-07-13T11:08:38;24.80;94.00
51837;DHT22;38941;53.254;6.600;2023-07-13T11:10:54;24.90;94.90
51837;DHT22;38941;53.254;6.600;2023-07-13T11:12:55;24.80;94.50
51837;DHT22;38941;53.254;6.600;2023-07-13T11:16:56;25.00;94.70
51837;DHT22;38941;53.254;6.600;2023-07-13T11:21:18;24.80;94.60
51837;DHT22;38941;53.254;6.600;2023-07-13T11:23:28;24.70;94.20
51837;DHT22;38941;53.254;6.600;2023-07-13T11:25:32;24.80;94.60
51837;DHT22;38941;53.254;6.600;2023-07-13T11:27:41;25.00;94.70
51837;DHT22;38941;53.254;6.600;2023-07-13T11:29:42;25.20;93.80
51837;DHT22;38941;53.254;6.600;2023-07-13T11:31:57;25.50;93.60
51837;DHT22;38941;53.254;6.600;2023-07-13T11:33:59;25.60;92.90
51837;DHT22;38941;53.254;6.600;2023-07-13T11:36:03;25.70;92.60
51837;DHT22;38941;53.254;6.600;2023-07-13T11:38:14;25.80;91.60
51837;DHT22;38941;53.254;6.600;2023-07-13T11:40:16;25.80;91.90
51837;DHT22;38941;53.254;6.600;2023-07-13T11:42:18;25.50;92.20
51837;DHT22;38941;53.254;6.600;2023-07-13T11:46:26;25.20;92.30
51837;DHT22;38941;53.254;6.600;2023-07-13T11:48:29;24.80;92.60
51837;DHT22;38941;53.254;6.600;2023-07-13T11:50:32;24.80;92.50
51837;DHT22;38941;53.254;6.600;2023-07-13T11:52:35;25.00;92.70
51837;DHT22;38941;53.254;6.600;2023-07-13T11:54:48;25.20;92.70
51837;DHT22;38941;53.254;6.600;2023-07-13T11:57:01;25.20;92.70
51837;DHT22;38941;53.254;6.600;2023-07-13T11:59:07;25.20;92.50
51837;DHT22;38941;53.254;6.600;2023-07-13T12:01:21;25.20;91.30
51837;DHT22;38941;53.254;6.600;2023-07-13T12:03:23;25.00;91.30
51837;DHT22;38941;53.254;6.600;2023-07-13T12:05:26;25.00;91.20
51837;DHT22;38941;53.254;6.600;2023-07-13T12:07:29;25.00;91.00
51837;DHT22;38941;53.254;6.600;2023-07-13T12:09:33;25.00;91.10
51837;DHT22;38941;53.254;6.600;2023-07-13T12:11:35;25.20;90.40
51837;DHT22;38941;53.254;6.600;2023-07-13T12:13:38;25.30;90.20
51837;DHT22;38941;53.254;6.600;2023-07-13T12:15:46;25.20;90.60
51837;DHT22;38941;53.254;6.600;2023-07-13T12:17:49;25.00;90.20
51837;DHT22;38941;53.254;6.600;2023-07-13T12:19:52;25.20;90.70
51837;DHT22;38941;53.254;6.600;2023-07-13T12:21:57;25.30;90.10
51837;DHT22;38941;53.254;6.600;2023-07-13T12:24:00;25.20;87.50
51837;DHT22;38941;53.254;6.600;2023-07-13T12:26:04;25.30;88.70
51837;DHT22;38941;53.254;6.600;2023-07-13T12:30:31;26.00;87.60
51837;DHT22;38941;53.254;6.600;2023-07-13T12:32:36;25.80;87.90
51837;DHT22;38941;53.254;6.600;2023-07-13T12:34:52;25.50;87.70
51837;DHT22;38941;53.254;6.600;2023-07-13T12:36:59;25.20;88.00
51837;DHT22;38941;53.254;6.600;2023-07-13T12:39:10;24.90;90.30
51837;DHT22;38941;53.254;6.600;2023-07-13T12:41:15;24.70;91.20
51837;DHT22;38941;53.254;6.600;2023-07-13T12:43:16;24.50;92.10
51837;DHT22;38941;53.254;6.600;2023-07-13T12:45:27;24.30;92.60
51837;DHT22;38941;53.254;6.600;2023-07-13T12:47:28;24.10;92.80
51837;DHT22;38941;53.254;6.600;2023-07-13T12:49:32;23.90;92.80
51837;DHT22;38941;53.254;6.600;2023-07-13T12:51:36;23.80;92.60
51837;DHT22;38941;53.254;6.600;2023-07-13T12:53:51;23.90;92.40
51837;DHT22;38941;53.254;6.600;2023-07-13T12:55:57;24.10;92.60
51837;DHT22;38941;53.254;6.600;2023-07-13T12:58:03;24.50;92.40
51837;DHT22;38941;53.254;6.600;2023-07-13T13:00:39;25.00;92.10
51837;DHT22;38941;53.254;6.600;2023-07-13T13:02:39;25.30;91.30
51837;DHT22;38941;53.254;6.600;2023-07-13T13:04:41;25.70;91.50
51837;DHT22;38941;53.254;6.600;2023-07-13T13:06:43;26.00;91.70
51837;DHT22;38941;53.254;6.600;2023-07-13T13:08:47;26.30;91.60
51837;DHT22;38941;53.254;6.600;2023-07-13T13:10:49;26.40;91.80
51837;DHT22;38941;53.254;6.600;2023-07-13T13:12:50;26.70;91.50
51837;DHT22;38941;53.254;6.600;2023-07-13T13:14:51;26.80;91.00
51837;DHT22;38941;53.254;6.600;2023-07-13T13:16:55;26.90;91.00
51837;DHT22;38941;53.254;6.600;2023-07-13T13:18:59;27.20;90.50
51837;DHT22;38941;53.254;6.600;2023-07-13T13:20:59;27.40;90.90
51837;DHT22;38941;53.254;6.600;2023-07-13T13:23:01;27.30;90.40